Flight Track Log - Related Links

Times and Time Zones

All times are in EDT time to prevent confusion due to time zone crossing. See the SWA34 flight status page for this flight to view local times or setup timezone preferences in your user account.

Time Position Orientation Groundspeed Altitude Reporting Facility
EDT Latitude Longitude Course Direction KTS MPH feet Rate Location/Type
Sun 04:05:17 PM 29.6694 -95.3106 331° Northwest 187 215 3,100  Level Houston Center
Sun 04:06:19 PM 29.7314 -95.3156 356° North 222 255 6,300 3,823 Climbing Houston Center
Sun 04:07:21 PM 29.8183 -95.3328 350° North 259 298 11,000 3,129 Climbing Houston Center
Sun 04:09:25 PM 29.9969 -95.3681 350° North 328 377 16,000 1,613 Climbing Houston Center
Sun 04:10:27 PM 30.0906 -95.3864 350° North 337 388 16,000 726 Level Houston Center
Sun 04:11:29 PM 30.1864 -95.4064 350° North 339 390 17,500 2,208 Climbing Houston Center
Sun 04:12:32 PM 30.2814 -95.4250 350° North 352 405 20,600 3,072 Climbing Houston Center
Sun 04:13:34 PM 30.4050 -95.4508 350° North 373 429 23,900 2,952 Climbing Houston Center
Sun 04:14:36 PM 30.5111 -95.4692 352° North 386 444 26,700 2,661 Climbing Houston Center
Sun 04:15:38 PM 30.6156 -95.4936 349° North 384 442 29,400 1,597 Climbing Houston Center
Sun 04:16:40 PM 30.7286 -95.5206 348° North 393 452 30,000 290 Climbing Houston Center
Sun 04:17:42 PM 30.8422 -95.5450 350° North 409 471 30,000  Level Houston Center
Sun 04:18:44 PM 30.9553 -95.5706 349° North 411 473 30,000  Level Houston Center
Sun 04:19:46 PM 31.0672 -95.5958 349° North 408 470 30,000  Level Houston Center
Sun 04:20:48 PM 31.2014 -95.6261 349° North 407 468 30,000  Level Houston Center
Sun 04:21:39 PM 31.2822 -95.6436 350° North 409 471 30,000  Level Fort Worth Center
Sun 04:22:39 PM 31.3914 -95.6831 343° North 400 460 30,000  Level Fort Worth Center
Sun 04:23:39 PM 31.4842 -95.7447 330° Northwest 390 449 30,000  Level Fort Worth Center
Sun 04:24:39 PM 31.5811 -95.8089 331° Northwest 392 451 30,000 -1,050 Level Fort Worth Center
Sun 04:25:39 PM 31.6736 -95.8706 330° Northwest 387 445 27,900 -2,050 Descending Fort Worth Center
Sun 04:26:39 PM 31.7536 -95.9303 328° Northwest 387 445 25,900 -2,254 Descending Fort Worth Center
Sun 04:28:40 PM 31.9325 -96.0475 331° Northwest 353 406 21,100 -2,333 Descending Fort Worth Center
Sun 04:29:39 PM 32.0208 -96.1050 331° Northwest 338 389 18,900 -2,118 Descending Fort Worth Center
Sun 04:30:39 PM 32.0986 -96.1578 330° Northwest 333 383 16,900 -2,132 Descending Fort Worth Center
Sun 04:31:40 PM 32.1764 -96.2131 329° Northwest 321 369 14,600 -2,100 Descending Fort Worth Center
Sun 04:32:39 PM 32.2456 -96.2539 333° Northwest 316 364 12,700 -2,017 Descending Fort Worth Center
Sun 04:33:39 PM 32.3253 -96.3022 333° Northwest 304 350 10,600 -1,450 Descending Fort Worth Center
Sun 04:34:39 PM 32.3800 -96.3531 322° Northwest 287 330 9,800 -800 Descending Fort Worth Center
Sun 04:35:39 PM 32.4389 -96.4114 320° Northwest 262 302 9,000 -1,200 Descending Fort Worth Center
Sun 04:36:39 PM 32.4853 -96.4603 318° Northwest 248 285 7,400 -1,587 Descending Fort Worth Center
Sun 04:37:40 PM 32.5442 -96.5214 319° Northwest 248 285 5,800 -1,450 Descending Fort Worth Center
Sun 04:38:39 PM 32.5906 -96.5700 319° Northwest 248 285 4,500 -908 Descending Fort Worth Center
Sun 04:39:39 PM 32.6494 -96.6289 320° Northwest 248 285 4,000 -500 Descending Fort Worth Center
Sun 04:40:39 PM 32.6892 -96.6778 314° West 242 278 3,500 -350 Descending Fort Worth Center
Sun 04:41:39 PM 32.7333 -96.7269 317° Northwest 211 243 3,300 -550 Descending Fort Worth Center
Sun 04:42:39 PM 32.7669 -96.7661 316° Northwest 191 220 2,400 -958 Descending Fort Worth Center
Sun 04:43:38 PM 32.8000 -96.8000 319° Northwest 143 165 1,400 -857 Descending Dallas / Fort Worth TRACON
Sun 04:44:38 PM 32.8333 -96.8333 320° Northwest 130 150 700 7,451 Descending Dallas / Fort Worth TRACON
Sun 04:46:40 PM 32.8783 -96.8964 310° West 144 166 24,000 11,459 Climbing Fort Worth Center

Login

Don't have an account? Register now (free) for customized features, flight alerts, and more!